Time;durP1;ratioP1;P1;durP2;ratioP2;P2;SDS_P1;SDS_P2;PMS_P1;PMS_P2;Temp;Humidity;BMP_temperature;BMP_pressure;BME280_temperature;BME280_humidity;BME280_pressure;Samples;Min_cycle;Max_cycle;Signal;HPM_P1;HPM_P2
2021/04/17 00:00:06;;;;;;;1.60;1.50;;;2.90;99.90;;;3.81;100.00;98848.41;5053272;28;20496;-81
2021/04/17 00:02:33;;;;;;;1.80;1.70;;;2.90;99.90;;;3.82;100.00;98847.44;5048697;28;20465;-81
2021/04/17 00:05:01;;;;;;;4.10;2.00;;;3.00;99.90;;;3.80;100.00;98846.78;5050405;28;20937;-81
2021/04/17 00:07:29;;;;;;;4.60;2.20;;;2.90;99.90;;;3.74;100.00;98842.94;5051368;28;20449;-81
2021/04/17 00:09:57;;;;;;;3.10;1.60;;;2.90;99.90;;;3.77;100.00;98841.84;5053600;28;20462;-82
2021/04/17 00:12:25;;;;;;;3.00;1.90;;;2.90;99.90;;;3.77;100.00;98837.50;5045562;28;20861;-81
2021/04/17 00:14:53;;;;;;;9.93;1.97;;;2.80;99.90;;;3.78;100.00;98835.75;5046141;28;20508;-81
2021/04/17 00:17:21;;;;;;;4.03;2.30;;;2.90;99.90;;;3.61;100.00;98831.91;5051141;28;20495;-81
2021/04/17 00:19:52;;;;;;;2.07;1.87;;;2.60;99.90;;;3.73;100.00;98835.28;5053229;28;20472;-82
2021/04/17 00:22:20;;;;;;;3.10;2.43;;;2.80;99.90;;;3.70;100.00;98831.19;5051886;28;20469;-81
2021/04/17 00:24:47;;;;;;;4.67;2.10;;;2.70;99.90;;;3.70;100.00;98825.19;5056635;28;20699;-81
2021/04/17 00:27:15;;;;;;;2.93;1.67;;;2.70;99.90;;;3.69;100.00;98818.38;5048387;28;20444;-81
2021/04/17 00:29:43;;;;;;;7.87;2.17;;;2.70;99.90;;;3.65;100.00;98822.97;5050022;28;20459;-81
2021/04/17 00:32:12;;;;;;;2.43;2.07;;;2.70;99.90;;;3.57;100.00;98820.19;5051598;28;20477;-81
2021/04/17 00:34:39;;;;;;;2.17;1.90;;;2.60;99.90;;;3.58;100.00;98826.16;5057954;28;20495;-81
2021/04/17 00:37:11;;;;;;;2.40;2.20;;;2.60;99.90;;;3.53;100.00;98819.63;5055072;28;20493;-81
2021/04/17 00:39:39;;;;;;;3.03;1.93;;;2.70;99.90;;;3.50;100.00;98819.88;5048990;28;20969;-81
2021/04/17 00:42:08;;;;;;;3.50;2.40;;;2.60;99.90;;;3.43;100.00;98817.91;5048442;28;20497;-81
2021/04/17 00:44:37;;;;;;;5.63;2.57;;;2.50;99.90;;;3.49;100.00;98817.41;5051425;28;20467;-82
2021/04/17 00:47:06;;;;;;;5.90;2.20;;;2.60;99.90;;;3.49;100.00;98817.41;5044272;28;21003;-81
2021/04/17 00:49:54;;;;;;;3.87;2.10;;;2.60;99.90;;;3.51;100.00;98816.31;5048385;28;20560;-81
2021/04/17 00:52:22;;;;;;;2.60;1.90;;;2.60;99.90;;;3.44;100.00;98815.19;5047740;28;20460;-81
2021/04/17 00:54:49;;;;;;;2.90;2.13;;;2.50;99.90;;;3.48;100.00;98808.00;5048391;28;20505;-81
2021/04/17 00:57:17;;;;;;;2.73;1.80;;;2.50;99.90;;;3.52;100.00;98812.81;5046374;28;20472;-81
2021/04/17 00:59:46;;;;;;;3.00;2.00;;;2.60;99.90;;;3.55;100.00;98807.38;5046537;28;20492;-81
2021/04/17 01:02:26;;;;;;;2.30;1.87;;;2.60;99.90;;;3.60;100.00;98794.09;5052101;28;20526;-81
2021/04/17 01:04:57;;;;;;;2.10;1.90;;;2.70;99.90;;;3.62;100.00;98804.28;5046723;28;20503;-81
2021/04/17 01:07:32;;;;;;;2.20;1.90;;;2.80;99.90;;;3.71;100.00;98798.38;5052917;28;20468;-81
2021/04/17 01:10:08;;;;;;;2.00;1.80;;;3.00;99.90;;;3.71;100.00;98798.38;5046073;28;20451;-81
2021/04/17 01:12:40;;;;;;;4.30;2.20;;;2.90;99.90;;;3.70;100.00;98796.75;5047357;28;21832;-81
2021/04/17 01:15:12;;;;;;;3.63;2.10;;;2.80;99.90;;;3.62;100.00;98805.13;5042652;28;20522;-81
2021/04/17 01:17:41;;;;;;;3.60;2.40;;;2.70;99.90;;;3.59;100.00;98802.78;5044780;28;20535;-81
2021/04/17 01:20:17;;;;;;;3.80;1.90;;;2.70;99.90;;;3.47;100.00;98799.41;5049787;28;20815;-81
2021/04/17 01:23:02;;;;;;;4.47;2.20;;;2.50;99.90;;;3.39;100.00;98807.00;5050842;28;20471;-82
2021/04/17 01:25:47;;;;;;;4.27;2.20;;;2.40;99.90;;;3.41;100.00;98793.91;5048733;28;20472;-81
2021/04/17 01:28:18;;;;;;;3.47;1.87;;;2.40;99.90;;;3.45;100.00;98801.31;5048611;28;20452;-81
2021/04/17 01:30:49;;;;;;;2.70;2.13;;;2.50;99.90;;;3.53;100.00;98792.94;5051424;28;20487;-82
2021/04/17 01:33:20;;;;;;;3.43;1.90;;;2.60;99.90;;;3.55;100.00;98797.03;5046214;28;20481;-81
2021/04/17 01:35:51;;;;;;;3.00;2.00;;;2.70;99.90;;;3.50;100.00;98788.84;5049248;28;20821;-81
2021/04/17 01:38:23;;;;;;;2.53;2.30;;;2.50;99.90;;;3.57;100.00;98793.53;5051320;28;20479;-81
2021/04/17 01:40:59;;;;;;;2.50;2.00;;;2.60;99.90;;;3.57;100.00;98785.75;5046052;28;20579;-81
2021/04/17 01:43:30;;;;;;;2.20;1.73;;;2.60;99.90;;;3.53;100.00;98793.78;5052103;28;20469;-81
2021/04/17 01:46:06;;;;;;;2.20;1.80;;;2.70;99.90;;;3.39;100.00;98780.31;5048279;28;21058;-81
2021/04/17 01:48:36;;;;;;;3.47;1.83;;;2.50;99.90;;;3.35;100.00;98789.25;5048677;28;20457;-81
2021/04/17 01:51:07;;;;;;;3.07;1.77;;;2.40;99.90;;;3.42;100.00;98786.06;5044008;28;20556;-81
2021/04/17 01:53:39;;;;;;;2.40;2.07;;;2.50;99.90;;;3.33;100.00;98781.59;5050270;28;20714;-82
2021/04/17 01:56:10;;;;;;;1.83;1.73;;;2.40;99.90;;;3.26;100.00;98780.50;5046311;28;20469;-81
2021/04/17 01:58:42;;;;;;;3.40;2.00;;;2.40;99.90;;;3.17;100.00;98785.56;5047419;28;20428;-81
2021/04/17 02:01:09;;;;;;;7.60;2.07;;;2.20;99.90;;;3.13;100.00;98786.72;5049510;28;20441;-81
2021/04/17 02:03:37;;;;;;;2.40;2.20;;;2.10;99.90;;;3.13;100.00;98784.97;5045658;28;20980;-82
2021/04/17 02:06:05;;;;;;;13.20;2.20;;;2.20;99.90;;;3.19;100.00;98792.25;5048152;28;20460;-81
2021/04/17 02:08:36;;;;;;;2.20;1.70;;;2.30;99.90;;;3.16;100.00;98787.31;5050757;28;20462;-81
2021/04/17 02:11:05;;;;;;;3.57;1.90;;;2.20;99.90;;;3.19;100.00;98787.09;5052236;28;20464;-81
2021/04/17 02:13:37;;;;;;;3.90;1.80;;;2.40;99.90;;;3.18;100.00;98782.84;5054145;28;20500;-81
2021/04/17 02:16:13;;;;;;;3.90;1.97;;;2.30;99.90;;;3.11;100.00;98788.63;5052048;28;20502;-82
2021/04/17 02:18:54;;;;;;;3.33;1.80;;;2.20;99.90;;;3.11;100.00;98786.88;5053606;28;20464;-81
2021/04/17 02:21:32;;;;;;;2.20;1.90;;;2.30;99.90;;;3.04;100.00;98781.38;5050466;28;20469;-81
2021/04/17 02:24:01;;;;;;;2.80;2.13;;;2.20;99.90;;;2.98;100.00;98784.44;5056946;28;20863;-81
2021/04/17 02:26:31;;;;;;;3.20;2.27;;;2.10;99.90;;;2.90;100.00;98778.22;5054471;28;20446;-81
2021/04/17 02:29:01;;;;;;;3.93;1.90;;;2.00;99.90;;;2.93;100.00;98780.56;5051494;28;20473;-81
2021/04/17 02:31:30;;;;;;;2.67;2.07;;;2.20;99.90;;;2.93;100.00;98778.00;5050528;28;20937;-81
2021/04/17 02:34:01;;;;;;;2.60;1.67;;;2.10;99.90;;;2.88;100.00;98780.91;5051074;28;20489;-81
2021/04/17 02:36:29;;;;;;;3.60;2.30;;;2.00;99.90;;;2.86;100.00;98787.16;5051411;28;21038;-81
2021/04/17 02:38:57;;;;;;;5.13;1.90;;;2.00;99.90;;;2.81;100.00;98778.97;5051792;28;20473;-81
2021/04/17 02:41:25;;;;;;;2.13;1.90;;;1.90;99.90;;;2.90;100.00;98779.06;5044724;28;20496;-81
2021/04/17 02:43:53;;;;;;;2.67;1.53;;;2.00;99.90;;;2.86;100.00;98772.50;5055286;28;20457;-81
2021/04/17 02:46:22;;;;;;;2.67;1.83;;;2.00;99.90;;;2.91;100.00;98774.72;5057027;28;20966;-81
2021/04/17 02:48:50;;;;;;;3.53;1.90;;;2.10;99.90;;;2.84;100.00;98773.56;5049847;28;20465;-81
2021/04/17 02:51:18;;;;;;;3.83;2.30;;;1.90;99.90;;;2.83;100.00;98777.91;5051893;28;20546;-81
2021/04/17 02:53:48;;;;;;;2.50;2.07;;;1.90;99.90;;;2.78;100.00;98774.84;5053950;28;20845;-81
2021/04/17 02:56:16;;;;;;;2.10;1.73;;;1.90;99.90;;;2.83;100.00;98782.25;5049382;28;20472;-81
2021/04/17 02:58:44;;;;;;;1.60;1.50;;;1.90;99.90;;;2.67;100.00;98782.63;5048133;28;20467;-81
2021/04/17 03:01:13;;;;;;;3.00;1.63;;;1.70;99.90;;;2.63;100.00;98775.22;5053908;28;20465;-81
2021/04/17 03:03:41;;;;;;;2.17;1.73;;;1.70;99.90;;;2.64;100.00;98776.88;5053627;28;20475;-81
2021/04/17 03:06:09;;;;;;;3.00;2.07;;;1.70;99.90;;;2.68;100.00;98775.69;5055086;28;20999;-81
2021/04/17 03:08:36;;;;;;;2.47;2.23;;;1.80;99.90;;;2.67;100.00;98774.88;5045429;28;20519;-81
2021/04/17 03:11:04;;;;;;;4.03;2.50;;;1.90;99.90;;;2.57;100.00;98773.94;5051557;28;20495;-81
2021/04/17 03:13:32;;;;;;;3.10;2.20;;;1.70;99.90;;;2.59;100.00;98773.81;5050250;28;20538;-81
2021/04/17 03:16:00;;;;;;;3.33;2.10;;;1.70;99.90;;;2.58;100.00;98767.00;5048370;28;20494;-81
2021/04/17 03:18:27;;;;;;;4.23;2.27;;;1.70;99.90;;;2.60;100.00;98775.47;5051817;28;20471;-81
2021/04/17 03:20:58;;;;;;;2.00;1.67;;;1.70;99.90;;;2.59;100.00;98773.81;5049368;28;20468;-81
2021/04/17 03:23:25;;;;;;;2.70;2.00;;;1.70;99.90;;;2.48;100.00;98774.66;5056983;28;20526;-81
2021/04/17 03:25:53;;;;;;;4.63;2.17;;;1.50;99.90;;;2.54;100.00;98767.25;5053121;28;20511;-81
2021/04/17 03:28:21;;;;;;;4.67;2.17;;;1.60;99.90;;;2.58;100.00;98769.59;5049816;28;20473;-81
2021/04/17 03:30:48;;;;;;;3.03;1.77;;;1.70;99.90;;;2.66;100.00;98767.25;5053407;28;20481;-81
2021/04/17 03:33:16;;;;;;;2.57;2.10;;;1.80;99.90;;;2.68;100.00;98773.09;5048964;28;20976;-81
2021/04/17 03:35:43;;;;;;;2.47;1.80;;;1.80;99.90;;;2.69;100.00;98770.41;5052529;28;20504;-81
2021/04/17 03:38:12;;;;;;;2.90;2.40;;;1.80;99.90;;;2.62;100.00;98771.00;5057083;28;20469;-81
2021/04/17 03:40:39;;;;;;;2.70;2.07;;;1.70;99.90;;;2.68;100.00;98767.94;5049576;28;20527;-83
2021/04/17 03:43:07;;;;;;;3.90;2.40;;;1.80;99.90;;;2.71;100.00;98772.88;5051947;28;20468;-81
2021/04/17 03:45:35;;;;;;;3.27;2.40;;;1.90;99.90;;;2.69;100.00;98770.41;5047497;28;20464;-81
2021/04/17 03:48:03;;;;;;;4.40;2.40;;;1.80;99.90;;;2.72;100.00;98769.34;5047720;28;20530;-81
2021/04/17 03:50:31;;;;;;;3.30;2.90;;;1.90;99.90;;;2.65;100.00;98769.00;5051589;28;20484;-81
2021/04/17 03:52:58;;;;;;;2.20;2.00;;;1.90;99.90;;;2.70;100.00;98771.22;5047609;28;20719;-82
2021/04/17 03:55:26;;;;;;;4.60;2.43;;;1.80;99.90;;;2.66;100.00;98764.66;5050890;28;20493;-83
2021/04/17 03:57:54;;;;;;;2.70;2.23;;;1.80;99.90;;;2.72;100.00;98767.59;5050009;28;20444;-82
2021/04/17 04:00:22;;;;;;;2.33;2.00;;;1.90;99.90;;;2.75;100.00;98769.09;5051158;28;20782;-82
2021/04/17 04:02:50;;;;;;;3.20;2.50;;;1.90;99.90;;;2.77;100.00;98762.06;5051661;28;20846;-82
2021/04/17 04:05:19;;;;;;;2.53;2.00;;;1.90;99.90;;;2.84;100.00;98770.97;5054881;28;20446;-82
2021/04/17 04:07:47;;;;;;;4.37;2.37;;;2.00;99.90;;;2.82;100.00;98770.25;5049881;28;20843;-82
2021/04/17 04:10:15;;;;;;;3.83;2.23;;;2.00;99.90;;;2.83;100.00;98771.91;5053813;28;20513;-83
2021/04/17 04:12:45;;;;;;;3.27;2.07;;;2.00;99.90;;;2.74;100.00;98767.47;5053985;28;20542;-83
2021/04/17 04:15:14;;;;;;;2.20;1.80;;;1.90;99.90;;;2.71;100.00;98765.13;5056443;28;20495;-82
2021/04/17 04:17:42;;;;;;;4.77;2.07;;;1.90;99.90;;;2.81;100.00;98764.25;5054791;28;20457;-81
2021/04/17 04:20:12;;;;;;;6.13;2.43;;;2.10;99.90;;;2.87;100.00;98768.16;5055753;28;20456;-81
2021/04/17 04:22:40;;;;;;;2.40;2.20;;;2.10;99.90;;;2.79;100.00;98770.50;5051693;28;20934;-81
2021/04/17 04:25:09;;;;;;;2.97;2.20;;;1.90;99.90;;;2.70;100.00;98760.91;5056101;28;20514;-80
2021/04/17 04:27:38;;;;;;;2.90;1.90;;;1.80;99.90;;;2.69;100.00;98765.25;5044325;28;20444;-81
2021/04/17 04:30:10;;;;;;;2.80;2.20;;;1.80;99.90;;;2.74;100.00;98765.69;5051934;28;20465;-83
2021/04/17 04:32:38;;;;;;;6.07;2.83;;;1.90;99.90;;;2.85;100.00;98773.41;5043969;28;20442;-81
2021/04/17 04:35:09;;;;;;;2.60;1.90;;;2.10;99.90;;;2.88;100.00;98765.44;5054091;28;20500;-81
2021/04/17 04:37:37;;;;;;;2.63;1.90;;;2.00;99.90;;;2.80;100.00;98764.41;5052580;28;20445;-80
2021/04/17 04:40:08;;;;;;;3.13;2.30;;;2.00;99.90;;;2.75;100.00;98762.16;5051879;28;21051;-79
2021/04/17 04:42:36;;;;;;;4.23;2.23;;;1.90;99.90;;;2.76;100.00;98766.41;5049173;28;20848;-80
2021/04/17 04:45:08;;;;;;;2.27;1.90;;;1.90;99.90;;;2.79;100.00;98775.66;5051461;28;20825;-80
2021/04/17 04:47:35;;;;;;;2.90;2.17;;;2.00;99.90;;;2.83;100.00;98772.72;5051524;28;20499;-80
2021/04/17 04:50:05;;;;;;;9.87;2.33;;;2.00;99.90;;;2.77;100.00;98772.41;5051459;28;20933;-80
2021/04/17 04:52:33;;;;;;;2.33;1.87;;;1.90;99.90;;;2.73;100.00;98773.56;5052139;28;20460;-80
2021/04/17 04:55:01;;;;;;;3.20;2.30;;;1.90;99.90;;;2.72;100.00;98769.34;5051635;28;20511;-80
2021/04/17 04:57:28;;;;;;;3.83;1.70;;;1.90;99.90;;;2.82;100.00;98771.09;5044314;28;20449;-80
2021/04/17 04:59:56;;;;;;;2.60;2.03;;;2.00;99.90;;;2.88;100.00;98769.78;5051569;28;20835;-80
2021/04/17 05:02:24;;;;;;;2.10;1.90;;;2.00;99.90;;;2.81;100.00;98774.59;5052371;28;20903;-80
2021/04/17 05:04:52;;;;;;;3.47;2.03;;;2.00;99.90;;;2.79;100.00;98768.75;5054370;28;20446;-80
2021/04/17 05:07:20;;;;;;;6.67;1.93;;;1.90;99.90;;;2.81;100.00;98773.81;5057829;28;20532;-80
2021/04/17 05:09:47;;;;;;;5.57;2.40;;;2.00;99.90;;;2.79;100.00;98773.91;5054971;28;20949;-80
2021/04/17 05:12:15;;;;;;;3.40;2.30;;;1.90;99.90;;;2.76;100.00;98775.91;5056872;28;21055;-80
2021/04/17 05:14:42;;;;;;;2.83;2.07;;;1.90;99.90;;;2.82;100.00;98776.25;5048103;28;20488;-80
2021/04/17 05:17:10;;;;;;;2.30;2.10;;;2.00;99.90;;;2.88;100.00;98780.13;5050442;28;20524;-80
2021/04/17 05:19:40;;;;;;;3.93;2.53;;;2.00;99.90;;;2.92;100.00;98772.00;5053028;28;20447;-80
2021/04/17 05:22:09;;;;;;;6.07;2.07;;;2.00;99.90;;;3.00;100.00;98773.97;5051160;28;20454;-81
2021/04/17 05:24:37;;;;;;;3.03;2.20;;;2.10;99.90;;;3.08;100.00;98781.94;5052014;28;20928;-81
2021/04/17 05:27:05;;;;;;;2.83;2.30;;;2.20;99.90;;;3.14;100.00;98773.69;5048716;28;20438;-80
2021/04/17 05:29:33;;;;;;;3.40;2.20;;;2.20;99.90;;;3.20;100.00;98774.97;5051520;28;20473;-80
2021/04/17 05:32:03;;;;;;;2.87;2.13;;;2.30;99.90;;;3.22;100.00;98783.44;5046368;28;20449;-80
2021/04/17 05:34:34;;;;;;;3.50;2.03;;;2.30;99.90;;;3.23;100.00;98785.88;5050671;28;20484;-80
2021/04/17 05:37:14;;;;;;;4.47;2.67;;;2.30;99.90;;;3.27;100.00;98782.09;5050685;28;20921;-80
2021/04/17 05:39:42;;;;;;;3.23;2.47;;;2.40;99.90;;;3.31;100.00;98783.50;5048858;28;20895;-80
2021/04/17 05:42:10;;;;;;;2.03;1.83;;;2.40;99.90;;;3.31;100.00;98783.50;5049853;28;20484;-80
2021/04/17 05:44:37;;;;;;;3.27;2.30;;;2.40;99.90;;;3.39;100.00;98785.47;5050862;28;20445;-80
2021/04/17 05:47:08;;;;;;;14.43;2.30;;;2.50;99.90;;;3.46;100.00;98781.47;5045611;28;20852;-80
2021/04/17 05:49:36;;;;;;;7.17;2.50;;;2.60;99.90;;;3.46;100.00;98782.28;5039090;28;20449;-80
2021/04/17 05:52:07;;;;;;;8.93;2.40;;;2.60;99.90;;;3.46;100.00;98784.88;5051675;28;20499;-80
2021/04/17 05:54:35;;;;;;;5.77;2.53;;;2.60;99.90;;;3.53;100.00;98775.69;5050236;28;20492;-80
2021/04/17 05:57:06;;;;;;;3.13;2.07;;;2.70;99.90;;;3.64;100.00;98781.72;5051214;28;20445;-80
2021/04/17 05:59:37;;;;;;;2.87;2.10;;;2.80;99.90;;;3.73;100.00;98778.38;5049976;28;20491;-80
2021/04/17 06:02:06;;;;;;;1.83;1.63;;;2.90;99.90;;;3.76;100.00;98778.13;5052454;28;20440;-80
2021/04/17 06:04:37;;;;;;;5.53;2.17;;;2.90;99.90;;;3.79;100.00;98775.28;5048123;28;20445;-81
2021/04/17 06:07:05;;;;;;;3.57;2.43;;;2.90;99.90;;;3.78;100.00;98771.06;5049727;28;20846;-80
2021/04/17 06:09:36;;;;;;;3.20;2.30;;;2.90;99.90;;;3.79;100.00;98772.69;5049890;28;20674;-80
2021/04/17 06:12:04;;;;;;;3.47;2.50;;;2.90;99.90;;;3.89;100.00;98777.00;5051329;28;20437;-80
2021/04/17 06:14:34;;;;;;;3.60;2.90;;;3.10;99.90;;;3.95;100.00;98778.25;5047460;28;20496;-80
2021/04/17 06:17:02;;;;;;;4.23;3.20;;;3.20;99.90;;;4.02;100.00;98776.81;5050507;28;20433;-80
2021/04/17 06:19:30;;;;;;;5.27;3.07;;;3.30;99.90;;;4.04;100.00;98777.50;5049786;28;20441;-80
2021/04/17 06:21:58;;;;;;;7.63;2.80;;;3.40;99.90;;;4.09;100.00;98777.94;5048259;28;20452;-80
2021/04/17 06:24:26;;;;;;;2.70;2.50;;;3.40;99.90;;;4.14;100.00;98783.53;5052015;28;20902;-80
2021/04/17 06:26:53;;;;;;;7.43;3.10;;;3.50;99.90;;;4.16;100.00;98778.25;5049911;28;20481;-80
2021/04/17 06:29:21;;;;;;;3.90;2.90;;;3.50;99.90;;;4.14;100.00;98780.13;5049681;28;20444;-80
2021/04/17 06:31:49;;;;;;;3.27;2.43;;;3.40;99.90;;;4.10;100.00;98776.97;5048749;28;21015;-80
2021/04/17 06:34:17;;;;;;;2.90;2.13;;;3.40;99.90;;;4.12;100.00;98775.09;5048533;28;20526;-80
2021/04/17 06:36:44;;;;;;;4.50;2.30;;;3.40;99.90;;;4.20;100.00;98772.66;5049488;28;20803;-80
2021/04/17 06:39:12;;;;;;;3.10;2.00;;;3.40;99.90;;;4.27;100.00;98778.16;5044324;28;20481;-80
2021/04/17 06:41:43;;;;;;;5.43;3.03;;;3.60;99.90;;;4.37;100.00;98776.44;5050439;28;20477;-80
2021/04/17 06:44:14;;;;;;;4.90;2.90;;;3.60;99.90;;;4.45;100.00;98761.88;5050744;28;20797;-80
2021/04/17 06:46:43;;;;;;;5.30;3.63;;;3.70;99.90;;;4.56;100.00;98769.56;5049378;28;20445;-80
2021/04/17 06:49:11;;;;;;;4.37;2.73;;;3.80;99.90;;;4.69;100.00;98773.66;5049238;28;20476;-80
2021/04/17 06:51:44;;;;;;;4.43;3.73;;;4.00;99.90;;;4.83;100.00;98768.13;5049112;28;20452;-80
2021/04/17 06:54:19;;;;;;;6.13;4.07;;;4.20;99.90;;;4.98;100.00;98767.63;5048336;28;20476;-80
2021/04/17 06:56:50;;;;;;;6.67;3.90;;;4.40;99.90;;;5.13;100.00;98762.88;5052539;28;20441;-80
2021/04/17 06:59:18;;;;;;;5.20;3.50;;;4.50;99.90;;;5.23;100.00;98763.69;5055333;28;20456;-80
2021/04/17 07:01:46;;;;;;;6.77;4.00;;;4.60;99.90;;;5.39;100.00;98753.59;5054930;28;20459;-80
2021/04/17 07:04:14;;;;;;;4.00;3.10;;;4.80;99.90;;;5.45;100.00;98762.59;5053796;28;20494;-80
2021/04/17 07:06:43;;;;;;;4.33;2.90;;;4.80;99.90;;;5.53;100.00;98755.75;5052459;28;20441;-80
2021/04/17 07:09:11;;;;;;;3.70;2.93;;;4.90;99.90;;;5.57;100.00;98751.94;5051563;28;20453;-80
2021/04/17 07:11:38;;;;;;;4.63;3.27;;;5.00;99.90;;;5.67;100.00;98756.28;5054776;28;20441;-81
2021/04/17 07:14:09;;;;;;;3.10;2.60;;;5.10;99.90;;;5.75;99.39;98759.84;5051533;28;20496;-80
2021/04/17 07:17:00;;;;;;;9.30;3.73;;;5.10;99.90;;;5.85;97.18;98755.47;5051925;28;20523;-80
2021/04/17 07:19:50;;;;;;;3.70;2.50;;;5.30;99.90;;;5.94;96.74;98756.41;5053030;28;20441;-80
2021/04/17 07:22:21;;;;;;;5.40;3.53;;;5.40;99.90;;;6.04;94.98;98752.00;5052384;28;20781;-80
2021/04/17 07:24:51;;;;;;;4.50;3.30;;;5.40;99.90;;;6.11;93.93;98753.09;5052092;28;20445;-80
2021/04/17 07:27:35;;;;;;;7.33;3.73;;;5.50;99.90;;;6.19;93.84;98748.00;5051428;28;20466;-80
2021/04/17 07:30:25;;;;;;;4.97;3.23;;;5.60;99.90;;;6.28;92.38;98757.53;5050694;28;20795;-80
2021/04/17 07:33:11;;;;;;;9.30;3.27;;;5.70;99.90;;;6.34;90.76;98757.00;5051707;28;20457;-80
2021/04/17 07:35:42;;;;;;;4.40;2.83;;;5.80;99.40;;;6.42;91.37;98753.69;5045635;28;20500;-80
2021/04/17 07:38:16;;;;;;;5.00;3.47;;;5.80;99.50;;;6.47;90.12;98749.69;5053162;28;21020;-80
2021/04/17 07:40:47;;;;;;;3.47;2.73;;;5.90;98.90;;;6.51;88.31;98753.63;5053879;28;20443;-80
2021/04/17 07:43:17;;;;;;;4.10;2.90;;;5.90;98.80;;;6.56;88.20;98746.22;5049992;28;20507;-80
2021/04/17 07:45:46;;;;;;;3.37;2.77;;;5.90;98.80;;;6.63;88.47;98745.66;5053092;28;20522;-80
2021/04/17 07:48:27;;;;;;;4.17;2.83;;;6.10;99.20;;;6.69;88.15;98747.66;5050543;28;20925;-80
2021/04/17 07:50:59;;;;;;;4.50;2.80;;;6.10;98.70;;;6.76;86.20;98751.31;5052300;28;20441;-80
2021/04/17 07:53:31;;;;;;;8.87;3.10;;;6.20;98.00;;;6.80;86.33;98747.47;5052148;28;20441;-80
2021/04/17 07:56:28;;;;;;;4.00;2.50;;;6.20;98.30;;;6.83;84.28;98748.00;5051655;28;20496;-80
2021/04/17 07:58:59;;;;;;;7.10;2.50;;;6.20;97.70;;;6.89;84.32;98746.59;5055489;28;20452;-80
2021/04/17 08:01:31;;;;;;;5.53;2.70;;;6.30;97.80;;;6.95;83.68;98740.78;5047036;28;20446;-80
2021/04/17 08:04:01;;;;;;;2.80;2.20;;;6.40;97.60;;;6.98;84.14;98738.72;5051602;28;20733;-80
2021/04/17 08:06:30;;;;;;;6.73;2.67;;;6.40;97.40;;;7.03;82.02;98738.28;5052199;28;20460;-80
2021/04/17 08:09:00;;;;;;;5.67;2.40;;;6.40;96.90;;;7.08;82.10;98726.47;5053566;28;20910;-80
2021/04/17 08:11:31;;;;;;;7.03;2.80;;;6.40;96.90;;;7.15;81.19;98720.69;5054963;28;20476;-80
2021/04/17 08:13:59;;;;;;;5.53;3.07;;;6.60;96.70;;;7.19;80.85;98722.81;5051803;28;20472;-80
2021/04/17 08:16:27;;;;;;;4.80;2.97;;;6.60;96.50;;;7.24;79.76;98715.41;5054820;28;20482;-80
2021/04/17 08:18:55;;;;;;;4.50;2.03;;;6.70;96.30;;;7.33;77.60;98713.69;5049825;28;20864;-80
2021/04/17 08:21:23;;;;;;;2.50;2.20;;;6.80;95.70;;;7.39;76.02;98710.50;5048577;28;20449;-80
2021/04/17 08:23:53;;;;;;;3.30;2.00;;;6.90;95.20;;;7.43;76.01;98728.22;5052626;28;20461;-80
2021/04/17 08:26:21;;;;;;;4.60;2.50;;;6.90;95.10;;;7.47;71.59;98720.94;5052203;28;20506;-80
2021/04/17 08:28:51;;;;;;;5.10;2.47;;;6.80;93.90;;;7.50;71.40;98715.44;5052625;28;20453;-79
2021/04/17 08:31:28;;;;;;;3.67;2.27;;;6.90;93.90;;;7.55;69.25;98708.84;5052397;28;20933;-80
2021/04/17 08:34:24;;;;;;;3.73;2.10;;;6.90;93.40;;;7.63;66.88;98712.47;5044510;28;20857;-80
2021/04/17 08:37:02;;;;;;;2.83;2.20;;;6.90;92.50;;;7.68;65.61;98703.22;5050570;28;20437;-80
2021/04/17 08:39:44;;;;;;;4.50;2.40;;;7.10;92.40;;;7.76;64.28;98715.47;5048503;28;20510;-80
2021/04/17 08:42:17;;;;;;;3.33;2.53;;;7.20;92.00;;;7.79;64.86;98720.38;5050518;28;20534;-80
2021/04/17 08:44:47;;;;;;;3.80;2.40;;;7.20;92.50;;;7.83;65.02;98712.13;5056360;28;20445;-80
2021/04/17 08:47:47;;;;;;;6.50;2.47;;;7.20;92.50;;;7.87;63.62;98717.84;5051701;28;20499;-80
2021/04/17 08:50:32;;;;;;;5.80;1.87;;;7.30;91.60;;;7.92;62.31;98715.56;5050924;28;20850;-80
2021/04/17 08:53:03;;;;;;;3.37;2.33;;;7.30;91.60;;;7.95;61.98;98720.47;5050034;28;20449;-80
2021/04/17 08:55:49;;;;;;;5.03;2.57;;;7.30;91.30;;;7.97;62.93;98719.38;5045565;28;20493;-80
2021/04/17 08:58:20;;;;;;;5.27;2.60;;;7.30;92.00;;;8.00;63.61;98707.81;5042754;28;20449;-80
2021/04/17 09:01:09;;;;;;;4.00;2.57;;;7.40;92.20;;;8.06;63.37;98713.22;5052671;28;20449;-80
2021/04/17 09:03:43;;;;;;;2.97;2.00;;;7.50;91.90;;;8.11;63.55;98720.59;5045711;28;20441;-80
2021/04/17 09:06:43;;;;;;;4.80;2.67;;;7.50;91.80;;;8.16;63.41;98722.72;5056845;28;20444;-80
2021/04/17 09:09:34;;;;;;;3.90;3.00;;;7.50;92.00;;;8.20;63.28;98714.44;5053148;28;20987;-80
2021/04/17 09:12:25;;;;;;;6.27;2.93;;;7.60;92.00;;;8.29;64.31;98705.72;5053067;28;20480;-80
2021/04/17 09:15:01;;;;;;;3.50;2.50;;;7.70;92.40;;;8.36;64.53;98709.34;5047572;28;20492;-80
2021/04/17 09:17:44;;;;;;;3.23;2.30;;;7.70;92.10;;;8.43;64.03;98705.16;5050692;28;20959;-80
2021/04/17 09:20:41;;;;;;;5.27;2.60;;;7.80;92.20;;;8.49;64.19;98714.94;5050284;28;20461;-81
2021/04/17 09:23:09;;;;;;;4.10;3.10;;;7.90;92.10;;;8.48;63.04;98702.88;5050323;28;20469;-80
2021/04/17 09:25:44;;;;;;;8.20;2.27;;;7.90;91.70;;;8.54;62.21;98696.19;5050985;28;20519;-80
2021/04/17 09:28:13;;;;;;;7.70;2.73;;;7.90;91.60;;;8.60;61.99;98700.78;5052116;28;20529;-80
2021/04/17 09:30:43;;;;;;;7.63;2.67;;;8.00;91.60;;;8.67;62.18;98691.38;5044148;28;20603;-80
2021/04/17 09:33:14;;;;;;;4.50;2.50;;;8.10;91.60;;;8.73;61.84;98689.91;5051498;28;20449;-80
2021/04/17 09:35:43;;;;;;;5.60;2.90;;;8.20;91.50;;;8.73;62.33;98701.16;5049967;28;20546;-80
2021/04/17 09:38:14;;;;;;;4.33;2.30;;;8.20;91.50;;;8.75;61.00;98698.38;5049579;28;20453;-80
2021/04/17 09:40:49;;;;;;;4.40;2.47;;;8.20;91.10;;;8.74;60.39;98688.94;5050598;28;20449;-80
2021/04/17 09:43:29;;;;;;;3.60;2.27;;;8.20;90.80;;;8.82;60.04;98686.31;5052141;28;20445;-80
2021/04/17 09:45:59;;;;;;;3.50;2.67;;;8.30;90.90;;;8.80;58.66;98685.69;5048793;28;20449;-81
2021/04/17 09:48:28;;;;;;;5.10;2.70;;;8.20;90.30;;;8.82;59.36;98684.53;5049698;28;20441;-80
2021/04/17 09:50:57;;;;;;;5.00;2.60;;;8.20;90.70;;;8.83;57.08;98680.16;5050159;28;20433;-80
2021/04/17 09:53:31;;;;;;;3.77;2.40;;;8.30;89.00;;;8.88;56.94;98680.50;5049092;28;20723;-81
2021/04/17 09:56:01;;;;;;;4.87;2.70;;;8.30;89.40;;;8.90;57.18;98675.91;5048035;28;20500;-81
2021/04/17 09:58:34;;;;;;;4.90;2.77;;;8.30;89.70;;;8.95;57.63;98673.66;5053444;28;20503;-80
2021/04/17 10:01:10;;;;;;;4.23;2.50;;;8.30;90.00;;;8.99;57.35;98669.72;5050496;28;20464;-81
2021/04/17 10:03:40;;;;;;;4.53;2.37;;;8.40;89.90;;;9.08;57.87;98668.78;5051236;28;20519;-80
2021/04/17 10:06:27;;;;;;;2.53;2.13;;;8.50;90.30;;;9.14;58.57;98673.34;5049458;28;20806;-80
2021/04/17 10:08:57;;;;;;;4.70;2.80;;;8.50;90.80;;;9.09;59.14;98671.22;5048457;28;20465;-80
2021/04/17 10:11:28;;;;;;;6.60;2.60;;;8.40;90.70;;;9.18;59.01;98669.44;5051192;28;20457;-81
2021/04/17 10:13:56;;;;;;;8.30;2.90;;;8.60;90.70;;;9.17;58.08;98648.72;5048964;28;20473;-80
2021/04/17 10:16:31;;;;;;;10.40;4.53;;;8.50;90.10;;;9.18;56.05;98651.16;5049295;28;20846;-80
2021/04/17 10:19:02;;;;;;;4.47;2.67;;;8.50;88.20;;;9.28;56.58;98659.66;5047589;28;20541;-81
2021/04/17 10:21:34;;;;;;;4.33;2.30;;;8.70;89.10;;;9.26;54.39;98656.41;5050219;28;20433;-81
2021/04/17 10:24:40;;;;;;;4.80;2.57;;;8.60;86.80;;;9.32;55.26;98645.28;5040546;28;20465;-81
2021/04/17 10:27:12;;;;;;;7.83;2.30;;;8.70;87.70;;;9.37;55.00;98647.41;4986366;28;20994;-81
2021/04/17 10:29:46;;;;;;;3.50;2.40;;;8.70;86.80;;;9.40;53.83;98634.84;4988532;28;20966;-81
2021/04/17 10:32:17;;;;;;;2.60;2.37;;;8.80;86.60;;;9.44;54.57;98640.56;5026499;28;20449;-81
2021/04/17 10:34:48;;;;;;;5.47;2.30;;;8.80;87.30;;;9.49;54.90;98636.47;5052301;28;20488;-80
2021/04/17 10:37:20;;;;;;;3.63;2.40;;;8.90;87.60;;;9.51;55.06;98638.94;5052374;28;20445;-81
2021/04/17 10:40:03;;;;;;;4.73;3.17;;;9.00;87.10;;;9.54;53.58;98639.38;5054363;28;20448;-81
2021/04/17 10:42:51;;;;;;;3.70;1.90;;;9.00;85.70;;;9.52;52.53;98630.91;5054212;28;20846;-81
2021/04/17 10:45:25;;;;;;;2.50;1.87;;;9.00;84.30;;;9.57;51.33;98628.63;5053095;28;20445;-83